createdAt,value
2019-05-29T00:02:01.809Z,93.32
2019-05-29T00:07:07.829Z,93.15
2019-05-29T00:12:19.210Z,93.52
2019-05-29T00:17:19.809Z,93.55
2019-05-29T00:22:24.807Z,94.02
2019-05-29T00:27:29.902Z,94.74
2019-05-29T00:32:35.007Z,96.16
2019-05-29T00:37:40.002Z,96.99
2019-05-29T00:42:45.009Z,97.56
2019-05-29T00:47:50.191Z,97.89
2019-05-29T00:52:55.410Z,98.22
2019-05-29T00:58:00.489Z,98.37
2019-05-29T01:03:05.762Z,98.71
2019-05-29T01:08:12.468Z,99.13
2019-05-29T01:13:19.142Z,99.66
2019-05-29T01:18:24.289Z,99.86
2019-05-29T01:23:29.369Z,100.00
2019-05-29T01:28:34.422Z,100.00
2019-05-29T01:33:39.539Z,100.00
2019-05-29T01:38:44.623Z,100.00
2019-05-29T01:43:49.805Z,99.86
2019-05-29T01:48:54.870Z,99.96
2019-05-29T01:54:00.154Z,100.00
2019-05-29T01:59:05.471Z,100.00
2019-05-29T02:04:10.762Z,100.00
2019-05-29T02:09:16.530Z,100.00
2019-05-29T02:14:22.741Z,100.00
2019-05-29T02:19:28.267Z,100.00
2019-05-29T02:24:33.502Z,100.00
2019-05-29T02:29:38.930Z,98.44
2019-05-29T02:34:44.103Z,97.57
2019-05-29T02:39:49.663Z,97.31
2019-05-29T02:44:55.203Z,97.68
2019-05-29T02:50:00.212Z,98.60
2019-05-29T02:55:05.711Z,100.00
2019-05-29T03:00:11.551Z,100.00
2019-05-29T03:05:16.537Z,100.00
2019-05-29T03:10:22.558Z,100.00
2019-05-29T03:15:27.494Z,100.00
2019-05-29T03:20:32.531Z,100.00
2019-05-29T03:25:37.343Z,100.00
2019-05-29T03:30:46.085Z,100.00
2019-05-29T03:35:49.157Z,100.00
2019-05-29T03:40:53.964Z,100.00
2019-05-29T03:45:58.969Z,100.00
2019-05-29T03:51:03.886Z,100.00
2019-05-29T03:56:08.871Z,100.00
2019-05-29T04:01:13.609Z,100.00
2019-05-29T04:06:18.465Z,100.00
2019-05-29T04:11:23.311Z,100.00
2019-05-29T04:16:29.569Z,100.00
2019-05-29T04:21:38.673Z,100.00
2019-05-29T04:26:44.872Z,100.00
2019-05-29T04:31:50.030Z,100.00
2019-05-29T04:36:54.817Z,100.00
2019-05-29T04:41:59.691Z,100.00
2019-05-29T04:47:11.047Z,100.00
2019-05-29T04:52:11.382Z,100.00
2019-05-29T04:57:16.512Z,100.00
2019-05-29T05:02:21.392Z,100.00
2019-05-29T05:07:26.222Z,100.00
2019-05-29T05:12:31.548Z,100.00
2019-05-29T05:17:36.517Z,100.00
2019-05-29T05:22:41.410Z,100.00
2019-05-29T05:27:46.301Z,100.00
2019-05-29T05:32:51.171Z,100.00
2019-05-29T05:37:55.910Z,100.00
2019-05-29T05:43:00.826Z,100.00
2019-05-29T05:48:05.770Z,100.00
2019-05-29T05:53:10.589Z,100.00
2019-05-29T05:58:15.410Z,100.00
2019-05-29T06:03:20.870Z,100.00
2019-05-29T06:08:25.669Z,100.00
2019-05-29T06:13:30.512Z,100.00
2019-05-29T06:18:36.448Z,100.00
2019-05-29T06:23:41.686Z,100.00
2019-05-29T06:28:46.875Z,100.00
2019-05-29T06:33:51.850Z,100.00
2019-05-29T06:38:57.089Z,100.00
2019-05-29T06:44:01.970Z,100.00
2019-05-29T06:49:06.870Z,100.00
2019-05-29T06:54:11.942Z,100.00
2019-05-29T06:59:16.801Z,100.00
2019-05-29T07:04:22.042Z,100.00
2019-05-29T07:09:26.951Z,100.00
2019-05-29T07:14:31.950Z,100.00
2019-05-29T07:19:48.946Z,100.00
2019-05-29T07:24:44.997Z,100.00
2019-05-29T07:29:50.371Z,100.00
2019-05-29T07:35:03.118Z,100.00
2019-05-29T07:40:01.949Z,100.00
2019-05-29T07:45:07.350Z,100.00
2019-05-29T07:50:13.055Z,100.00
2019-05-29T07:55:18.229Z,100.00
2019-05-29T08:00:34.735Z,100.00
2019-05-29T08:05:30.310Z,100.00
2019-05-29T08:10:35.153Z,100.00
2019-05-29T08:15:55.019Z,100.00
2019-05-29T08:20:46.409Z,100.00
2019-05-29T08:25:51.863Z,100.00
2019-05-29T08:30:56.872Z,100.00
2019-05-29T08:36:01.671Z,100.00
2019-05-29T08:41:06.441Z,100.00
2019-05-29T08:46:11.190Z,100.00
2019-05-29T08:51:16.210Z,100.00
2019-05-29T08:56:21.289Z,100.00
2019-05-29T09:01:26.171Z,100.00
2019-05-29T09:06:31.191Z,100.00
2019-05-29T09:11:36.341Z,100.00
2019-05-29T09:16:41.231Z,100.00
2019-05-29T09:21:46.213Z,100.00
2019-05-29T09:26:51.313Z,100.00
2019-05-29T09:31:56.423Z,100.00
2019-05-29T09:37:01.376Z,100.00
2019-05-29T09:42:06.350Z,100.00
2019-05-29T09:47:11.191Z,100.00
2019-05-29T09:52:16.010Z,100.00
2019-05-29T09:57:20.970Z,100.00
2019-05-29T10:02:26.192Z,100.00
2019-05-29T10:07:31.465Z,100.00
2019-05-29T10:12:36.990Z,100.00
2019-05-29T10:17:42.131Z,100.00
2019-05-29T10:22:47.030Z,100.00
2019-05-29T10:27:52.056Z,100.00
2019-05-29T10:32:57.087Z,100.00
2019-05-29T10:38:01.911Z,100.00
2019-05-29T10:43:06.970Z,100.00
2019-05-29T10:48:11.810Z,100.00
2019-05-29T10:53:16.769Z,100.00
2019-05-29T10:58:21.616Z,100.00
2019-05-29T11:03:26.509Z,100.00
2019-05-29T11:08:31.469Z,100.00
2019-05-29T11:13:36.733Z,100.00
2019-05-29T11:18:41.685Z,100.00
2019-05-29T11:23:47.705Z,100.00
2019-05-29T11:28:52.902Z,100.00
2019-05-29T11:33:59.237Z,100.00
2019-05-29T11:39:08.004Z,100.00
2019-05-29T11:44:13.303Z,100.00
2019-05-29T11:49:18.315Z,100.00
2019-05-29T11:54:23.051Z,100.00
2019-05-29T11:59:27.956Z,100.00
2019-05-29T12:04:32.992Z,100.00
2019-05-29T12:09:37.964Z,100.00
2019-05-29T12:14:59.055Z,100.00
2019-05-29T12:19:49.382Z,100.00
2019-05-29T12:24:54.632Z,100.00
2019-05-29T12:30:00.807Z,100.00
2019-05-29T12:35:07.290Z,100.00
2019-05-29T12:40:12.550Z,100.00
2019-05-29T12:45:18.391Z,100.00
2019-05-29T12:50:23.470Z,100.00
2019-05-29T12:55:28.512Z,100.00
2019-05-29T13:00:33.571Z,100.00
2019-05-29T13:05:38.710Z,100.00
2019-05-29T13:10:43.750Z,100.00
2019-05-29T13:15:48.915Z,100.00
2019-05-29T13:20:54.779Z,100.00
2019-05-29T13:25:59.970Z,100.00
2019-05-29T13:31:06.703Z,100.00
2019-05-29T13:36:11.782Z,100.00
2019-05-29T13:41:17.204Z,100.00
2019-05-29T13:46:22.084Z,100.00
2019-05-29T13:51:27.131Z,100.00
2019-05-29T13:56:32.245Z,100.00
2019-05-29T14:01:37.191Z,100.00
2019-05-29T14:06:42.481Z,100.00
2019-05-29T14:11:47.565Z,100.00
2019-05-29T14:16:53.542Z,100.00
2019-05-29T14:21:58.749Z,100.00
2019-05-29T14:27:03.701Z,100.00
2019-05-29T14:32:09.300Z,100.00
2019-05-29T14:37:14.864Z,100.00
2019-05-29T14:42:20.430Z,100.00
2019-05-29T14:47:25.891Z,100.00
2019-05-29T14:52:31.370Z,100.00
2019-05-29T14:57:36.478Z,100.00
2019-05-29T15:02:41.690Z,100.00
2019-05-29T15:07:46.733Z,100.00
2019-05-29T15:12:51.817Z,100.00
2019-05-29T15:17:57.022Z,100.00
2019-05-29T15:23:02.439Z,100.00
2019-05-29T15:28:08.143Z,100.00
2019-05-29T15:33:14.876Z,100.00
2019-05-29T15:38:20.432Z,100.00
2019-05-29T15:43:25.644Z,100.00
2019-05-29T15:48:30.805Z,100.00
2019-05-29T15:53:36.162Z,100.00
2019-05-29T15:58:41.362Z,100.00
2019-05-29T16:03:46.530Z,100.00
2019-05-29T16:08:51.909Z,100.00
2019-05-29T16:13:57.490Z,100.00
2019-05-29T16:19:02.392Z,100.00
2019-05-29T16:24:07.930Z,100.00
2019-05-29T16:29:15.963Z,100.00
2019-05-29T16:34:21.427Z,100.00
2019-05-29T16:39:26.785Z,100.00
2019-05-29T16:44:32.269Z,100.00
2019-05-29T16:49:37.430Z,100.00
2019-05-29T16:54:42.611Z,100.00
2019-05-29T16:59:47.969Z,100.00
2019-05-29T17:04:53.310Z,100.00
2019-05-29T17:09:58.689Z,100.00
2019-05-29T17:15:03.791Z,100.00
2019-05-29T17:20:09.586Z,100.00
2019-05-29T17:25:14.945Z,100.00
2019-05-29T17:30:23.649Z,100.00
2019-05-29T17:35:29.209Z,100.00
2019-05-29T17:40:34.633Z,100.00
2019-05-29T17:45:39.631Z,100.00
2019-05-29T17:50:44.809Z,100.00
2019-05-29T17:55:49.736Z,100.00
2019-05-29T18:00:55.272Z,100.00
2019-05-29T18:06:00.414Z,100.00
2019-05-29T18:11:05.598Z,100.00
2019-05-29T18:16:10.592Z,100.00
2019-05-29T18:21:15.630Z,100.00
2019-05-29T18:26:20.437Z,100.00
2019-05-29T18:31:26.524Z,100.00
2019-05-29T18:36:31.854Z,100.00
2019-05-29T18:41:36.949Z,100.00
2019-05-29T18:46:42.071Z,100.00
2019-05-29T18:51:47.131Z,100.00
2019-05-29T18:57:13.805Z,100.00
2019-05-29T19:01:59.123Z,100.00
2019-05-29T19:07:04.441Z,100.00
2019-05-29T19:12:10.230Z,100.00
2019-05-29T19:17:16.482Z,100.00
2019-05-29T19:22:22.263Z,100.00
2019-05-29T19:27:36.516Z,100.00
2019-05-29T19:32:34.695Z,100.00
2019-05-29T19:37:39.733Z,100.00
2019-05-29T19:42:44.870Z,100.00
2019-05-29T19:47:49.933Z,100.00
2019-05-29T19:52:54.994Z,100.00
2019-05-29T19:58:00.203Z,100.00
2019-05-29T20:03:05.510Z,100.00
2019-05-29T20:08:10.878Z,100.00
2019-05-29T20:13:16.149Z,100.00
2019-05-29T20:18:21.109Z,100.00
2019-05-29T20:23:26.191Z,100.00
2019-05-29T20:28:32.107Z,100.00
2019-05-29T20:33:38.661Z,100.00
2019-05-29T20:38:43.750Z,100.00
2019-05-29T20:43:48.742Z,100.00
2019-05-29T20:48:53.690Z,100.00
2019-05-29T20:53:58.823Z,100.00
2019-05-29T20:59:04.226Z,100.00
2019-05-29T21:04:09.403Z,100.00
2019-05-29T21:09:14.625Z,100.00
2019-05-29T21:14:19.942Z,100.00
2019-05-29T21:19:25.254Z,100.00
2019-05-29T21:24:30.243Z,100.00
2019-05-29T21:29:35.289Z,100.00
2019-05-29T21:34:40.330Z,100.00
2019-05-29T21:39:46.652Z,100.00
2019-05-29T21:44:51.760Z,100.00
2019-05-29T21:49:56.749Z,100.00
2019-05-29T21:55:01.831Z,100.00
2019-05-29T22:00:14.286Z,100.00
2019-05-29T22:05:20.150Z,100.00
2019-05-29T22:10:26.274Z,100.00
2019-05-29T22:15:31.669Z,100.00
2019-05-29T22:20:36.769Z,100.00
2019-05-29T22:25:42.081Z,100.00
2019-05-29T22:30:47.282Z,100.00
2019-05-29T22:35:54.019Z,100.00
2019-05-29T22:40:59.699Z,100.00
2019-05-29T22:46:05.182Z,100.00
2019-05-29T22:51:09.991Z,100.00
2019-05-29T22:56:14.942Z,100.00
2019-05-29T23:01:20.102Z,100.00
2019-05-29T23:06:25.150Z,100.00
2019-05-29T23:11:30.130Z,100.00
2019-05-29T23:16:35.128Z,100.00
2019-05-29T23:21:40.090Z,100.00
2019-05-29T23:26:45.322Z,100.00
2019-05-29T23:31:50.342Z,100.00
2019-05-29T23:36:55.413Z,100.00
2019-05-29T23:42:01.474Z,100.00
2019-05-29T23:47:06.630Z,100.00
2019-05-29T23:52:11.550Z,100.00
2019-05-29T23:57:16.510Z,100.00
